Time;durP1;ratioP1;P1;durP2;ratioP2;P2;SDS_P1;SDS_P2;PMS_P1;PMS_P2;Temp;Humidity;BMP_temperature;BMP_pressure;BME280_temperature;BME280_humidity;BME280_pressure;Samples;Min_cycle;Max_cycle;Signal;HPM_P1;HPM_P2
2022/11/21 00:00:43;;;;;;;0.47;0.47;;;;;;;14.13;100.00;98246.22;5051006;28;20204;-64
2022/11/21 00:03:10;;;;;;;0.40;0.40;;;;;;;14.06;100.00;98255.25;5051093;28;20193;-64
2022/11/21 00:05:39;;;;;;;0.50;0.50;;;;;;;14.13;100.00;98243.66;5051472;28;20204;-64
2022/11/21 00:08:06;;;;;;;0.60;0.60;;;;;;;14.13;100.00;98230.78;5051605;28;20197;-64
2022/11/21 00:10:33;;;;;;;0.50;0.50;;;;;;;14.13;100.00;98215.31;5051503;28;20285;-64
2022/11/21 00:13:00;;;;;;;0.60;0.60;;;;;;;14.22;100.00;98177.84;5051108;28;20205;-64
2022/11/21 00:15:27;;;;;;;0.60;0.60;;;;;;;14.22;100.00;98178.63;5051417;28;20212;-65
2022/11/21 00:17:55;;;;;;;0.50;0.50;;;;;;;14.26;100.00;98159.47;5051353;28;20208;-65
2022/11/21 00:20:22;;;;;;;0.40;0.40;;;;;;;14.23;100.00;98151.94;5048781;28;20196;-65
2022/11/21 00:22:50;;;;;;;0.40;0.40;;;;;;;14.21;100.00;98138.34;5051279;28;20246;-64
2022/11/21 00:25:18;;;;;;;0.40;0.40;;;;;;;14.30;100.00;98126.59;5051199;28;20201;-64
2022/11/21 00:27:44;;;;;;;0.50;0.50;;;;;;;14.35;100.00;98109.94;5051502;28;20696;-64
2022/11/21 00:30:12;;;;;;;0.50;0.50;;;;;;;14.24;100.00;98094.31;5050818;28;20259;-65
2022/11/21 00:32:39;;;;;;;0.50;0.50;;;;;;;14.12;100.00;98069.34;5051054;28;20666;-65
2022/11/21 00:35:08;;;;;;;0.50;0.50;;;;;;;14.26;100.00;98086.47;5050843;28;20238;-65
2022/11/21 00:37:35;;;;;;;0.43;0.43;;;;;;;14.25;100.00;98072.75;5050934;28;20653;-64
2022/11/21 00:40:02;;;;;;;0.50;0.50;;;;;;;14.20;100.00;98075.66;5050223;28;20684;-64
2022/11/21 00:42:29;;;;;;;0.50;0.50;;;;;;;14.19;100.00;98074.00;5050692;28;20204;-64
2022/11/21 00:44:56;;;;;;;0.70;0.70;;;;;;;14.09;100.00;98064.38;5050815;28;20246;-64
2022/11/21 00:47:22;;;;;;;0.50;0.50;;;;;;;14.06;100.00;98082.63;5050862;28;20219;-64
2022/11/21 00:49:49;;;;;;;0.60;0.60;;;;;;;13.76;100.00;98128.41;5050636;28;20196;-64
2022/11/21 00:52:18;;;;;;;0.50;0.50;;;;;;;13.60;100.00;98138.84;5050605;28;20200;-65
2022/11/21 00:54:44;;;;;;;0.50;0.50;;;;;;;13.54;100.00;98134.03;5050646;28;20221;-64
2022/11/21 00:57:12;;;;;;;0.57;0.57;;;;;;;13.61;100.00;98131.00;5050774;28;20197;-65
2022/11/21 00:59:39;;;;;;;0.50;0.50;;;;;;;13.56;100.00;98138.19;5050532;28;20204;-64
2022/11/21 01:02:05;;;;;;;0.60;0.60;;;;;;;13.55;100.00;98144.25;5050172;28;20196;-64
2022/11/21 01:04:33;;;;;;;0.60;0.60;;;;;;;13.51;100.00;98149.69;5050298;28;20239;-64
2022/11/21 01:07:00;;;;;;;0.40;0.40;;;;;;;13.47;100.00;98159.34;5050701;28;20208;-63
2022/11/21 01:09:28;;;;;;;0.60;0.60;;;;;;;13.41;100.00;98164.88;5049113;28;20197;-64
2022/11/21 01:11:55;;;;;;;0.57;0.57;;;;;;;13.54;100.00;98194.09;5050382;28;20197;-64
2022/11/21 01:14:22;;;;;;;0.50;0.50;;;;;;;13.56;100.00;98225.75;5050408;28;20204;-64
2022/11/21 01:16:49;;;;;;;0.60;0.60;;;;;;;13.48;100.00;98201.38;5050198;28;20576;-63
2022/11/21 01:19:15;;;;;;;0.30;0.30;;;;;;;13.53;100.00;98202.75;5050357;28;20203;-64
2022/11/21 01:21:42;;;;;;;0.50;0.50;;;;;;;13.57;100.00;98199.06;5048878;28;20193;-64
2022/11/21 01:24:11;;;;;;;0.50;0.50;;;;;;;13.58;100.00;98193.00;5050492;28;20208;-64
2022/11/21 01:26:39;;;;;;;0.60;0.60;;;;;;;13.57;100.00;98193.09;5050142;28;20203;-64
2022/11/21 01:29:07;;;;;;;0.60;0.60;;;;;;;13.58;100.00;98233.34;5050388;28;20197;-64
2022/11/21 01:31:34;;;;;;;0.43;0.43;;;;;;;13.54;100.00;98237.88;5049791;28;20213;-64
2022/11/21 01:34:01;;;;;;;0.57;0.57;;;;;;;13.63;100.00;98190.94;5049923;28;20254;-63
2022/11/21 01:36:30;;;;;;;0.60;0.60;;;;;;;13.66;100.00;98172.75;5048124;28;20227;-64
2022/11/21 01:38:58;;;;;;;0.70;0.70;;;;;;;13.63;100.00;98144.59;5049452;28;20581;-63
2022/11/21 01:41:30;;;;;;;0.40;0.40;;;;;;;13.66;100.00;98138.44;5049535;28;20565;-64
2022/11/21 01:43:58;;;;;;;0.60;0.60;;;;;;;13.65;100.00;98111.03;5050206;28;20208;-63
2022/11/21 01:46:25;;;;;;;0.60;0.60;;;;;;;13.71;100.00;98099.53;5049049;28;20189;-64
2022/11/21 01:48:55;;;;;;;0.50;0.50;;;;;;;13.71;100.00;98084.06;5049814;28;20209;-65
2022/11/21 01:51:28;;;;;;;0.60;0.60;;;;;;;13.78;100.00;98100.78;5052716;28;20201;-64
2022/11/21 01:54:00;;;;;;;0.50;0.50;;;;;;;13.73;100.00;98108.00;5053931;28;20206;-63
2022/11/21 01:56:30;;;;;;;0.50;0.50;;;;;;;13.62;100.00;98085.50;5053518;28;20220;-64
2022/11/21 01:59:02;;;;;;;0.40;0.40;;;;;;;13.70;100.00;98121.06;5053448;28;20189;-64
2022/11/21 02:01:30;;;;;;;0.83;0.83;;;;;;;13.58;100.00;98131.19;5053681;28;20223;-65
2022/11/21 02:03:57;;;;;;;0.50;0.50;;;;;;;13.62;100.00;98142.13;5053492;28;20221;-66
2022/11/21 02:06:25;;;;;;;0.50;0.50;;;;;;;13.55;100.00;98136.53;5053526;28;20193;-64
2022/11/21 02:08:52;;;;;;;0.50;0.50;;;;;;;13.56;100.00;98137.38;5053744;28;20544;-64
2022/11/21 02:11:27;;;;;;;0.70;0.70;;;;;;;13.57;100.00;98149.34;5052084;28;20201;-63
2022/11/21 02:13:55;;;;;;;0.60;0.60;;;;;;;13.55;100.00;98135.72;5052962;28;20294;-64
2022/11/21 02:16:24;;;;;;;0.50;0.50;;;;;;;13.58;100.00;98131.19;5052236;28;20220;-64
2022/11/21 02:18:51;;;;;;;0.57;0.57;;;;;;;13.51;100.00;98113.63;5053319;28;20197;-64
2022/11/21 02:21:26;;;;;;;0.70;0.70;;;;;;;13.63;100.00;98108.53;5052574;28;20200;-64
2022/11/21 02:24:01;;;;;;;0.50;0.50;;;;;;;13.61;100.00;98094.13;5050743;28;20733;-64
2022/11/21 02:26:30;;;;;;;0.40;0.40;;;;;;;13.68;100.00;98097.97;5052361;28;20192;-64
2022/11/21 02:28:57;;;;;;;0.50;0.50;;;;;;;13.73;100.00;98077.09;5053422;28;20684;-64
2022/11/21 02:31:24;;;;;;;0.50;0.50;;;;;;;13.76;100.00;98071.75;5052974;28;20581;-64
2022/11/21 02:33:50;;;;;;;0.67;0.67;;;;;;;13.72;100.00;98044.53;5052984;28;20656;-64
2022/11/21 02:36:43;;;;;;;0.50;0.50;;;;;;;13.82;100.00;98067.03;5053137;28;20616;-64
2022/11/21 02:39:14;;;;;;;0.50;0.50;;;;;;;13.83;100.00;98073.00;5052848;28;20734;-64
2022/11/21 02:41:50;;;;;;;0.43;0.43;;;;;;;13.86;100.00;98078.75;5053045;28;20255;-64
2022/11/21 02:44:22;;;;;;;0.50;0.50;;;;;;;13.73;100.00;98087.38;5051876;28;20445;-64
2022/11/21 02:46:51;;;;;;;0.40;0.40;;;;;;;13.68;100.00;98069.66;5052275;28;20196;-64
2022/11/21 02:49:27;;;;;;;0.60;0.60;;;;;;;13.60;100.00;98087.34;5052863;28;20193;-65
2022/11/21 02:51:53;;;;;;;0.60;0.60;;;;;;;13.58;100.00;98095.16;5052048;28;20253;-64
2022/11/21 02:54:20;;;;;;;0.70;0.70;;;;;;;13.61;100.00;98087.22;5051302;28;20254;-64
2022/11/21 02:56:48;;;;;;;0.43;0.43;;;;;;;13.57;100.00;98083.19;5052238;28;20247;-64
2022/11/21 02:59:15;;;;;;;0.40;0.40;;;;;;;13.62;100.00;98072.63;5052889;28;20200;-64
2022/11/21 03:01:42;;;;;;;0.50;0.50;;;;;;;13.56;100.00;98071.25;5052591;28;20207;-64
2022/11/21 03:04:08;;;;;;;0.70;0.70;;;;;;;13.62;100.00;98063.13;5052149;28;20279;-63
2022/11/21 03:06:35;;;;;;;0.50;0.50;;;;;;;13.53;100.00;98045.72;5052352;28;20201;-65
2022/11/21 03:09:02;;;;;;;0.50;0.50;;;;;;;13.41;100.00;98064.47;5052566;28;20200;-64
2022/11/21 03:11:29;;;;;;;0.50;0.50;;;;;;;13.37;100.00;98062.22;5052364;28;20676;-64
2022/11/21 03:13:57;;;;;;;0.50;0.50;;;;;;;13.39;100.00;98048.31;5052405;28;20676;-64
2022/11/21 03:16:23;;;;;;;0.50;0.50;;;;;;;13.40;100.00;98054.28;5052523;28;20268;-63
2022/11/21 03:18:50;;;;;;;0.50;0.50;;;;;;;13.38;100.00;98059.53;5052274;28;20200;-64
2022/11/21 03:21:17;;;;;;;0.43;0.43;;;;;;;13.32;100.00;98067.63;5052448;28;20192;-64
2022/11/21 03:23:44;;;;;;;2.73;0.73;;;;;;;13.33;100.00;98069.28;5052067;28;20208;-64
2022/11/21 03:26:11;;;;;;;0.40;0.40;;;;;;;13.33;100.00;98071.88;5051861;28;20204;-65
2022/11/21 03:28:37;;;;;;;0.50;0.50;;;;;;;13.13;100.00;98083.38;5051887;28;20580;-64
2022/11/21 03:31:06;;;;;;;0.50;0.50;;;;;;;13.02;100.00;98074.66;5050623;28;20197;-64
2022/11/21 03:33:32;;;;;;;0.53;0.53;;;;;;;13.00;100.00;98066.19;5052016;28;20250;-63
2022/11/21 03:35:59;;;;;;;0.50;0.50;;;;;;;12.96;100.00;98070.69;5051870;28;20266;-64
2022/11/21 03:38:26;;;;;;;0.50;0.50;;;;;;;13.04;100.00;98065.09;5052151;28;20722;-64
2022/11/21 03:40:53;;;;;;;0.47;0.47;;;;;;;13.04;100.00;98052.22;5051629;28;20197;-64
2022/11/21 03:43:19;;;;;;;0.50;0.50;;;;;;;13.06;100.00;98033.19;5051809;28;20651;-64
2022/11/21 03:45:47;;;;;;;0.50;0.50;;;;;;;13.02;100.00;98026.59;5051458;28;20664;-64
2022/11/21 03:48:15;;;;;;;0.50;0.50;;;;;;;13.06;100.00;98032.38;5051347;28;20287;-64
2022/11/21 03:50:43;;;;;;;0.50;0.50;;;;;;;13.07;100.00;98034.84;5051219;28;20223;-63
2022/11/21 03:53:10;;;;;;;0.50;0.50;;;;;;;13.17;100.00;98032.56;5051260;28;20197;-64
2022/11/21 03:55:36;;;;;;;0.40;0.40;;;;;;;13.15;100.00;98022.38;5051748;28;20220;-66
2022/11/21 03:58:03;;;;;;;0.57;0.57;;;;;;;12.88;100.00;98013.75;5051219;28;20197;-65
2022/11/21 04:00:30;;;;;;;0.70;0.70;;;;;;;12.85;100.00;98015.69;5051443;28;20215;-65
2022/11/21 04:02:57;;;;;;;0.40;0.40;;;;;;;12.89;100.00;98027.44;5049927;28;20201;-64
2022/11/21 04:05:25;;;;;;;0.50;0.50;;;;;;;12.97;100.00;98036.34;5051419;28;20205;-64
2022/11/21 04:07:52;;;;;;;0.70;0.70;;;;;;;12.98;100.00;98026.88;5051434;28;20205;-64
2022/11/21 04:10:19;;;;;;;0.60;0.60;;;;;;;12.98;100.00;98026.88;5051490;28;20617;-65
2022/11/21 04:12:46;;;;;;;0.47;0.47;;;;;;;12.96;100.00;98041.56;5051183;28;20221;-65
2022/11/21 04:15:13;;;;;;;0.40;0.40;;;;;;;12.83;100.00;98031.19;5051280;28;20207;-65
2022/11/21 04:17:40;;;;;;;0.40;0.40;;;;;;;12.73;100.00;98016.44;5051275;28;20201;-64
2022/11/21 04:20:07;;;;;;;0.50;0.50;;;;;;;12.83;100.00;98023.50;5051384;28;20192;-64
2022/11/21 04:22:35;;;;;;;0.67;0.67;;;;;;;12.92;100.00;98024.69;5050941;28;20250;-64
2022/11/21 04:25:02;;;;;;;0.50;0.50;;;;;;;12.99;100.00;98015.66;5050943;28;20250;-64
2022/11/21 04:27:29;;;;;;;0.50;0.50;;;;;;;12.85;100.00;98001.09;5050153;28;20204;-65
2022/11/21 04:29:56;;;;;;;0.50;0.50;;;;;;;12.85;100.00;98031.97;5050731;28;20224;-64
2022/11/21 04:32:23;;;;;;;0.50;0.50;;;;;;;12.87;100.00;98034.41;5050777;28;20196;-63
2022/11/21 04:34:49;;;;;;;0.57;0.57;;;;;;;12.85;100.00;98028.56;5051404;28;20212;-64
2022/11/21 04:37:16;;;;;;;0.40;0.40;;;;;;;12.81;100.00;98014.22;5050481;28;20228;-63
2022/11/21 04:39:44;;;;;;;0.50;0.50;;;;;;;12.78;100.00;98030.66;5050653;28;20204;-63
2022/11/21 04:42:11;;;;;;;0.40;0.40;;;;;;;12.79;100.00;98036.66;5050744;28;20196;-64
2022/11/21 04:44:38;;;;;;;0.40;0.40;;;;;;;12.73;100.00;98011.31;5049233;28;20197;-64
2022/11/21 04:47:04;;;;;;;0.50;0.50;;;;;;;12.74;100.00;98018.91;5049908;28;20200;-65
2022/11/21 04:49:31;;;;;;;0.53;0.53;;;;;;;12.67;100.00;98016.78;5050494;28;20734;-64
2022/11/21 04:51:58;;;;;;;0.47;0.47;;;;;;;12.60;100.00;98031.78;5050604;28;20223;-65
2022/11/21 04:54:25;;;;;;;0.97;0.97;;;;;;;12.58;100.00;98037.00;5050514;28;20579;-64
2022/11/21 04:56:53;;;;;;;0.60;0.60;;;;;;;12.62;100.00;98033.34;5050673;28;20233;-64
2022/11/21 04:59:20;;;;;;;0.60;0.60;;;;;;;12.72;100.00;98032.78;5050619;28;20193;-64
2022/11/21 05:01:46;;;;;;;0.50;0.50;;;;;;;12.72;100.00;98025.06;5050661;28;20204;-64
2022/11/21 05:04:13;;;;;;;0.50;0.50;;;;;;;12.76;100.00;98036.84;5050404;28;20225;-64
2022/11/21 05:06:40;;;;;;;0.53;0.53;;;;;;;12.75;100.00;98030.03;5046905;28;20197;-64
2022/11/21 05:09:07;;;;;;;0.73;0.73;;;;;;;12.80;100.00;98033.13;5050472;28;20201;-64
2022/11/21 05:14:19;;;;;;;0.90;0.90;;;;;;;12.64;100.00;98013.50;5048859;28;20305;-64
2022/11/21 05:16:46;;;;;;;0.40;0.40;;;;;;;12.69;100.00;98025.25;5050127;28;20703;-64
2022/11/21 05:19:12;;;;;;;0.77;0.77;;;;;;;12.74;100.00;98034.34;5050285;28;20200;-64
2022/11/21 05:21:39;;;;;;;0.30;0.30;;;;;;;12.77;100.00;98034.16;5050438;28;20200;-64
2022/11/21 05:24:07;;;;;;;0.60;0.60;;;;;;;12.67;100.00;98045.91;5049758;28;20197;-63
2022/11/21 05:26:33;;;;;;;0.60;0.60;;;;;;;12.64;100.00;98075.19;5052025;28;20668;-64
2022/11/21 05:29:00;;;;;;;0.60;0.60;;;;;;;12.55;100.00;98057.75;5053586;28;20580;-64
2022/11/21 05:31:28;;;;;;;0.83;0.83;;;;;;;12.26;100.00;98027.81;5054141;28;20250;-65
2022/11/21 05:33:57;;;;;;;0.50;0.50;;;;;;;12.22;100.00;98021.19;5053849;28;20231;-64
2022/11/21 05:36:24;;;;;;;0.60;0.60;;;;;;;12.17;100.00;98014.69;5053649;28;20577;-64
2022/11/21 05:38:51;;;;;;;0.70;0.70;;;;;;;12.20;100.00;98023.03;5053352;28;20215;-64
2022/11/21 05:41:18;;;;;;;0.40;0.40;;;;;;;12.30;100.00;98042.13;5051811;28;20205;-64
2022/11/21 05:43:46;;;;;;;0.60;0.60;;;;;;;12.30;100.00;98039.56;5053227;28;20209;-64
2022/11/21 05:46:14;;;;;;;0.63;0.63;;;;;;;12.40;100.00;98058.69;5053773;28;20189;-64
2022/11/21 05:48:42;;;;;;;0.50;0.50;;;;;;;12.41;100.00;98057.75;5054058;28;20209;-64
2022/11/21 05:51:09;;;;;;;0.60;0.60;;;;;;;12.36;100.00;98041.78;5053539;28;20200;-64
2022/11/21 05:53:36;;;;;;;0.53;0.53;;;;;;;12.50;100.00;98057.19;5054028;28;20575;-64
2022/11/21 05:56:05;;;;;;;0.53;0.53;;;;;;;12.50;100.00;98059.75;5053459;28;20209;-64
2022/11/21 05:58:32;;;;;;;0.50;0.50;;;;;;;12.51;100.00;98068.31;5053551;28;20208;-64
2022/11/21 06:00:59;;;;;;;0.50;0.50;;;;;;;12.48;100.00;98079.59;5053183;28;20208;-64
2022/11/21 06:03:25;;;;;;;0.87;0.87;;;;;;;12.31;100.00;98072.03;5053626;28;20223;-64
2022/11/21 06:05:59;;;;;;;0.47;0.47;;;;;;;12.34;100.00;98061.56;5053844;28;20679;-63
2022/11/21 06:08:26;;;;;;;0.80;0.80;;;;;;;12.51;100.00;98074.28;5052181;28;20684;-63
2022/11/21 06:10:53;;;;;;;0.50;0.50;;;;;;;12.53;100.00;98066.50;5053854;28;20209;-64
2022/11/21 06:13:22;;;;;;;1.00;1.00;;;;;;;12.56;100.00;98072.28;5052875;28;20267;-64
2022/11/21 06:15:51;;;;;;;0.40;0.40;;;;;;;12.55;100.00;98075.75;5053234;28;20259;-64
2022/11/21 06:18:18;;;;;;;0.67;0.67;;;;;;;12.50;100.00;98080.31;5052309;28;20627;-63
2022/11/21 06:20:45;;;;;;;0.50;0.50;;;;;;;12.53;100.00;98081.91;5051930;28;20200;-64
2022/11/21 06:23:13;;;;;;;0.50;0.50;;;;;;;12.48;100.00;98089.03;5052679;28;20591;-64
2022/11/21 06:25:40;;;;;;;0.70;0.70;;;;;;;12.44;100.00;98072.97;5052824;28;20223;-64
2022/11/21 06:28:07;;;;;;;0.57;0.57;;;;;;;12.52;100.00;98073.38;5052407;28;20565;-64
2022/11/21 06:30:34;;;;;;;0.50;0.50;;;;;;;12.55;100.00;98068.03;5052624;28;20205;-63
2022/11/21 06:33:03;;;;;;;0.60;0.60;;;;;;;12.60;100.00;98075.50;5051783;28;20200;-62
2022/11/21 06:35:30;;;;;;;0.50;0.50;;;;;;;12.64;100.00;98075.19;5050754;28;20656;-62
2022/11/21 06:37:57;;;;;;;0.50;0.50;;;;;;;12.69;100.00;98066.41;5049521;28;20670;-62
2022/11/21 06:40:25;;;;;;;0.50;0.50;;;;;;;12.69;100.00;98071.53;5050931;28;20215;-62
2022/11/21 06:42:52;;;;;;;0.50;0.50;;;;;;;12.78;100.00;98070.97;5051816;28;20209;-63
2022/11/21 06:45:19;;;;;;;0.47;0.47;;;;;;;12.83;100.00;98092.09;5052105;28;20207;-63
2022/11/21 06:47:45;;;;;;;0.60;0.60;;;;;;;12.88;100.00;98082.38;5051572;28;20251;-63
2022/11/21 06:50:12;;;;;;;0.53;0.53;;;;;;;12.93;100.00;98082.91;5052169;28;20212;-62
2022/11/21 06:52:39;;;;;;;0.43;0.43;;;;;;;12.92;100.00;98076.13;5052345;28;20201;-65
2022/11/21 06:55:06;;;;;;;0.50;0.50;;;;;;;12.90;100.00;98083.09;5051773;28;20208;-65
2022/11/21 06:57:34;;;;;;;0.50;0.50;;;;;;;12.97;100.00;98071.53;5051518;28;20229;-64
2022/11/21 07:00:02;;;;;;;0.40;0.40;;;;;;;13.02;100.00;98084.94;5048953;28;20205;-64
2022/11/21 07:02:28;;;;;;;0.43;0.43;;;;;;;13.11;100.00;98077.53;5050798;28;20649;-63
2022/11/21 07:04:55;;;;;;;0.50;0.50;;;;;;;13.22;100.00;98097.44;5051416;28;20223;-63
2022/11/21 07:07:22;;;;;;;0.50;0.50;;;;;;;13.36;100.00;98084.56;5052315;28;20201;-63
2022/11/21 07:09:49;;;;;;;0.60;0.60;;;;;;;13.49;100.00;98079.47;5051895;28;20638;-64
2022/11/21 07:15:01;;;;;;;0.50;0.50;;;;;;;13.68;100.00;98093.66;5050487;28;20207;-66
2022/11/21 07:17:27;;;;;;;0.40;0.40;;;;;;;13.79;100.00;98094.72;5051143;28;20224;-66
2022/11/21 07:19:54;;;;;;;0.50;0.50;;;;;;;13.93;100.00;98080.03;5050705;28;20584;-67
2022/11/21 07:22:21;;;;;;;0.40;0.40;;;;;;;14.06;100.00;98085.19;5050390;28;20201;-67
2022/11/21 07:24:48;;;;;;;1.10;0.97;;;;;;;14.17;100.00;98082.75;5049926;28;20197;-66
2022/11/21 07:27:14;;;;;;;0.53;0.53;;;;;;;14.23;100.00;98091.84;5048201;28;20201;-67
2022/11/21 07:29:41;;;;;;;0.53;0.53;;;;;;;14.36;100.00;98084.97;5049664;28;20197;-67
2022/11/21 07:32:09;;;;;;;0.43;0.43;;;;;;;14.56;100.00;98081.91;5049302;28;20632;-67
2022/11/21 07:34:36;;;;;;;0.50;0.50;;;;;;;14.63;100.00;98091.72;5050383;28;20251;-66
2022/11/21 07:37:03;;;;;;;0.50;0.50;;;;;;;14.89;100.00;98102.03;5051146;28;20230;-66
2022/11/21 07:39:29;;;;;;;0.40;0.40;;;;;;;15.11;100.00;98112.53;5051409;28;20220;-66
2022/11/21 07:41:56;;;;;;;0.50;0.50;;;;;;;15.32;100.00;98105.03;5051024;28;20200;-66
2022/11/21 07:44:23;;;;;;;0.40;0.40;;;;;;;15.59;100.00;98113.47;5051471;28;20251;-66
2022/11/21 07:46:53;;;;;;;0.50;0.50;;;;;;;15.77;100.00;98121.69;5051239;28;20196;-65
2022/11/21 07:49:21;;;;;;;0.50;0.50;;;;;;;15.92;100.00;98131.75;5050173;28;20253;-66
2022/11/21 07:51:48;;;;;;;0.50;0.50;;;;;;;16.01;100.00;98135.41;5049902;28;20254;-63
2022/11/21 07:54:15;;;;;;;0.50;0.50;;;;;;;16.03;100.00;98128.34;5050021;28;20257;-63
2022/11/21 07:56:41;;;;;;;0.50;0.50;;;;;;;16.07;100.00;98129.78;5049871;28;20271;-64
2022/11/21 07:59:08;;;;;;;0.47;0.47;;;;;;;16.10;100.00;98134.75;5049194;28;20207;-63
2022/11/21 08:01:35;;;;;;;0.50;0.50;;;;;;;16.16;100.00;98139.47;5047300;28;20211;-64
2022/11/21 08:04:02;;;;;;;0.50;0.50;;;;;;;16.17;100.00;98146.28;5048899;28;20231;-63
2022/11/21 08:06:30;;;;;;;0.40;0.40;;;;;;;16.21;100.00;98147.72;5049431;28;20654;-63
2022/11/21 08:08:57;;;;;;;0.60;0.60;;;;;;;16.24;100.00;98148.31;5049942;28;20212;-64
2022/11/21 08:11:24;;;;;;;0.40;0.40;;;;;;;16.27;100.00;98144.69;5048293;28;20218;-63
2022/11/21 08:13:51;;;;;;;0.50;0.50;;;;;;;16.33;100.00;98146.81;5047895;28;20258;-64
2022/11/21 08:16:18;;;;;;;0.50;0.50;;;;;;;16.38;100.00;98154.25;5049881;28;20212;-64
2022/11/21 08:18:44;;;;;;;0.40;0.40;;;;;;;16.43;100.00;98158.16;5047457;28;20204;-63
2022/11/21 08:21:11;;;;;;;0.50;0.50;;;;;;;16.50;100.00;98154.16;5046070;28;20213;-65
2022/11/21 08:23:39;;;;;;;0.50;0.50;;;;;;;16.51;100.00;98160.97;5049187;28;20200;-65
2022/11/21 08:26:09;;;;;;;0.40;0.40;;;;;;;16.51;100.00;98163.56;5049622;28;20215;-64
2022/11/21 08:28:36;;;;;;;0.67;0.67;;;;;;;16.58;100.00;98162.22;5049591;28;20302;-64
2022/11/21 08:31:04;;;;;;;0.50;0.50;;;;;;;16.55;100.00;98162.44;5049567;28;20201;-64
2022/11/21 08:33:31;;;;;;;0.47;0.47;;;;;;;16.63;100.00;98167.88;5049656;28;20205;-64
2022/11/21 08:35:58;;;;;;;0.50;0.50;;;;;;;16.69;100.00;98164.84;5049620;28;20208;-63
2022/11/21 08:38:25;;;;;;;6.93;1.47;;;;;;;16.66;100.00;98159.88;5048896;28;20266;-64
2022/11/21 08:43:33;;;;;;;0.60;0.60;;;;;;;16.78;100.00;98169.31;5049704;28;20211;-67
2022/11/21 08:46:00;;;;;;;0.60;0.60;;;;;;;16.88;100.00;98153.09;5047518;28;20208;-67
2022/11/21 08:48:27;;;;;;;0.50;0.50;;;;;;;16.86;100.00;98160.16;5046497;28;20201;-66
2022/11/21 08:50:56;;;;;;;0.60;0.60;;;;;;;16.94;100.00;98163.81;5047278;28;20662;-66
2022/11/21 08:53:23;;;;;;;0.50;0.50;;;;;;;17.08;100.00;98160.19;5048204;28;20421;-67
2022/11/21 08:55:50;;;;;;;0.40;0.40;;;;;;;17.12;97.52;98159.00;5047359;28;20254;-66
2022/11/21 08:58:18;;;;;;;0.60;0.60;;;;;;;17.19;96.00;98158.41;5046846;28;20224;-66
2022/11/21 09:00:44;;;;;;;0.40;0.40;;;;;;;17.25;94.99;98159.72;5048251;28;20213;-66
2022/11/21 09:03:11;;;;;;;0.73;0.73;;;;;;;17.37;94.10;98166.53;5051660;28;20676;-65
2022/11/21 09:05:38;;;;;;;0.70;0.70;;;;;;;17.48;85.91;98171.69;5053312;28;20197;-66
2022/11/21 09:08:05;;;;;;;0.50;0.50;;;;;;;17.58;83.25;98167.50;5052959;28;20630;-65
2022/11/21 09:10:32;;;;;;;1.13;0.47;;;;;;;17.78;83.27;98166.75;5049411;28;20687;-65
2022/11/21 09:12:58;;;;;;;0.43;0.43;;;;;;;17.94;82.33;98156.00;5050449;28;20209;-65
2022/11/21 09:18:11;;;;;;;0.50;0.50;;;;;;;18.29;83.60;98155.75;5049517;28;20278;-65
2022/11/21 09:20:40;;;;;;;0.40;0.40;;;;;;;18.29;85.00;98135.00;5047395;28;20212;-66
2022/11/21 09:23:08;;;;;;;0.40;0.40;;;;;;;18.47;83.85;98143.88;5049252;28;20197;-66
2022/11/21 09:25:35;;;;;;;0.50;0.50;;;;;;;18.53;82.37;98153.78;5052966;28;20205;-65
2022/11/21 09:28:02;;;;;;;0.73;0.73;;;;;;;18.66;84.46;98144.03;5050104;28;20259;-66
2022/11/21 09:30:30;;;;;;;0.40;0.40;;;;;;;18.92;80.35;98144.47;5051757;28;20196;-66
2022/11/21 09:33:00;;;;;;;0.43;0.43;;;;;;;19.08;83.23;98131.00;5053411;28;20209;-66
2022/11/21 09:35:27;;;;;;;0.40;0.40;;;;;;;19.30;78.18;98139.44;5052295;28;20210;-66
2022/11/21 09:37:54;;;;;;;0.50;0.50;;;;;;;19.45;75.55;98145.09;5053209;28;20225;-65
2022/11/21 09:40:21;;;;;;;0.57;0.57;;;;;;;19.66;76.46;98145.03;5052675;28;20202;-65
2022/11/21 09:43:02;;;;;;;0.30;0.30;;;;;;;19.75;73.91;98134.66;5052611;28;20251;-66
2022/11/21 09:45:34;;;;;;;0.50;0.50;;;;;;;19.76;75.29;98128.50;5052300;28;20201;-66
2022/11/21 09:48:06;;;;;;;0.40;0.40;;;;;;;20.06;73.15;98142.38;5050454;28;20291;-65
2022/11/21 09:50:36;;;;;;;0.30;0.30;;;;;;;20.15;75.66;98146.75;5052895;28;20209;-66
2022/11/21 09:53:06;;;;;;;0.40;0.40;;;;;;;20.22;74.61;98140.06;5052178;28;20541;-66
2022/11/21 09:55:42;;;;;;;0.50;0.50;;;;;;;20.27;72.49;98143.91;5052376;28;20216;-66
2022/11/21 09:58:19;;;;;;;0.20;0.20;;;;;;;20.21;74.15;98144.44;5050709;28;20218;-65
2022/11/21 10:00:50;;;;;;;0.33;0.33;;;;;;;20.17;70.61;98139.63;5052008;28;20298;-70
2022/11/21 10:03:20;;;;;;;0.30;0.30;;;;;;;20.19;72.80;98138.56;5050083;28;20292;-66
2022/11/21 10:05:51;;;;;;;0.50;0.50;;;;;;;20.21;73.00;98141.00;5048762;28;20322;-67
2022/11/21 10:08:29;;;;;;;0.40;0.40;;;;;;;20.16;73.58;98138.00;5048959;28;20202;-66
2022/11/21 10:11:02;;;;;;;0.60;0.60;;;;;;;20.01;75.31;98145.38;5049059;28;20203;-64
2022/11/21 10:13:52;;;;;;;0.40;0.40;;;;;;;19.81;76.95;98149.72;5051356;28;20205;-66
2022/11/21 10:16:32;;;;;;;0.30;0.30;;;;;;;19.66;77.53;98145.03;5052017;28;20206;-67
2022/11/21 10:19:19;;;;;;;0.40;0.40;;;;;;;19.62;80.38;98154.88;5049147;28;20213;-68
2022/11/21 10:22:14;;;;;;;0.40;0.40;;;;;;;19.48;81.61;98157.88;5050508;28;20689;-67
2022/11/21 10:24:53;;;;;;;0.70;0.70;;;;;;;19.38;79.96;98167.38;5049027;28;20209;-67
2022/11/21 10:27:30;;;;;;;1.33;0.87;;;;;;;19.29;82.38;98162.94;5051564;28;20227;-66
2022/11/21 10:30:02;;;;;;;0.40;0.40;;;;;;;19.08;86.33;98154.38;5052176;28;20262;-67
2022/11/21 10:32:34;;;;;;;0.40;0.40;;;;;;;18.91;88.78;98167.94;5049568;28;20231;-68
2022/11/21 10:35:12;;;;;;;0.57;0.57;;;;;;;18.75;88.53;98171.81;5050176;28;20278;-68
2022/11/21 10:37:44;;;;;;;0.40;0.40;;;;;;;18.60;90.12;98165.31;5051793;28;20216;-68
2022/11/21 10:40:23;;;;;;;0.50;0.50;;;;;;;18.57;91.45;98162.97;5051659;28;20205;-67
2022/11/21 10:42:55;;;;;;;0.50;0.50;;;;;;;18.55;91.25;98159.66;5050631;28;20208;-67
2022/11/21 10:45:22;;;;;;;0.40;0.40;;;;;;;18.52;90.47;98167.69;5047436;28;20695;-68
2022/11/21 10:47:51;;;;;;;0.40;0.40;;;;;;;18.45;89.91;98171.72;5050728;28;20203;-68
2022/11/21 10:50:39;;;;;;;0.40;0.40;;;;;;;18.25;89.68;98146.59;5050929;28;20573;-67
2022/11/21 10:56:05;;;;;;;0.43;0.43;;;;;;;18.29;89.87;98176.50;5050524;28;20215;-67
2022/11/21 10:58:42;;;;;;;0.47;0.47;;;;;;;18.19;88.58;98171.22;5048874;28;20216;-68
2022/11/21 11:01:23;;;;;;;0.60;0.60;;;;;;;18.06;87.08;98174.94;5048420;28;20282;-66
2022/11/21 11:06:47;;;;;;;0.50;0.50;;;;;;;17.80;88.95;98158.88;5138614;27;20898;-69
2022/11/21 11:09:27;;;;;;;0.67;0.67;;;;;;;17.87;87.96;98177.34;5133582;27;20206;-68
2022/11/21 11:11:54;;;;;;;0.50;0.50;;;;;;;17.75;87.22;98181.72;5129513;27;20289;-69
2022/11/21 11:14:31;;;;;;;0.40;0.40;;;;;;;17.71;87.50;98181.13;5130881;27;20194;-68
2022/11/21 11:16:59;;;;;;;0.50;0.50;;;;;;;17.76;88.55;98181.63;5138165;27;20691;-69
2022/11/21 11:19:28;;;;;;;0.50;0.50;;;;;;;17.76;88.68;98176.44;5130479;27;20206;-69
2022/11/21 11:21:56;;;;;;;0.60;0.60;;;;;;;17.74;86.83;98185.25;5128058;27;20202;-64
2022/11/21 11:24:28;;;;;;;0.50;0.50;;;;;;;17.77;88.30;98185.03;5126815;27;20664;-68
2022/11/21 11:27:01;;;;;;;0.70;0.70;;;;;;;17.66;86.34;98172.91;5128075;27;20202;-70
2022/11/21 11:29:29;;;;;;;0.40;0.40;;;;;;;17.53;86.40;98179.97;5127248;27;20753;-67
2022/11/21 11:32:00;;;;;;;0.50;0.50;;;;;;;17.49;86.37;98190.66;5126022;27;20297;-67
2022/11/21 11:34:36;;;;;;;0.40;0.40;;;;;;;17.48;87.14;98196.81;5126530;27;20668;-68
2022/11/21 11:37:12;;;;;;;0.40;0.40;;;;;;;17.38;85.10;98194.09;5129579;27;20940;-68
2022/11/21 11:39:44;;;;;;;0.57;0.57;;;;;;;17.41;86.44;98195.63;5131603;27;20254;-67
2022/11/21 11:48:42;;;;;;;0.50;0.50;;;;;;;17.18;87.58;98200.81;5128992;27;20247;-68
2022/11/21 11:51:19;;;;;;;0.50;0.50;;;;;;;17.10;86.04;98202.31;5132365;27;20198;-67
2022/11/21 11:53:52;;;;;;;0.40;0.40;;;;;;;16.95;86.73;98206.06;5125370;27;20653;-67
2022/11/21 11:56:24;;;;;;;0.50;0.50;;;;;;;16.77;85.48;98214.25;5137041;27;20687;-67